sensor_id;sensor_type;location;lat;lon;timestamp;pressure;altitude;pressure_sealevel;temperature
20867;BMP280;10593;48.398;10.698;2023-07-09T00:01:17;96599.88;;;29.22
20867;BMP280;10593;48.398;10.698;2023-07-09T00:03:47;96596.53;;;29.20
20867;BMP280;10593;48.398;10.698;2023-07-09T00:06:18;96601.22;;;29.17
20867;BMP280;10593;48.398;10.698;2023-07-09T00:08:45;96598.69;;;29.15
20867;BMP280;10593;48.398;10.698;2023-07-09T00:11:16;96596.31;;;29.12
20867;BMP280;10593;48.398;10.698;2023-07-09T00:13:42;96602.84;;;29.08
20867;BMP280;10593;48.398;10.698;2023-07-09T00:16:19;96596.88;;;29.06
20867;BMP280;10593;48.398;10.698;2023-07-09T00:18:45;96599.91;;;29.02
20867;BMP280;10593;48.398;10.698;2023-07-09T00:21:15;96599.19;;;29.00
20867;BMP280;10593;48.398;10.698;2023-07-09T00:23:41;96602.06;;;28.97
20867;BMP280;10593;48.398;10.698;2023-07-09T00:26:10;96604.88;;;28.95
20867;BMP280;10593;48.398;10.698;2023-07-09T00:28:36;96606.09;;;28.91
20867;BMP280;10593;48.398;10.698;2023-07-09T00:31:02;96606.31;;;28.88
20867;BMP280;10593;48.398;10.698;2023-07-09T00:33:27;96613.53;;;28.86
20867;BMP280;10593;48.398;10.698;2023-07-09T00:35:57;96609.38;;;28.84
20867;BMP280;10593;48.398;10.698;2023-07-09T00:38:24;96606.13;;;28.80
20867;BMP280;10593;48.398;10.698;2023-07-09T00:41:01;96615.16;;;28.78
20867;BMP280;10593;48.398;10.698;2023-07-09T00:43:33;96615.41;;;28.75
20867;BMP280;10593;48.398;10.698;2023-07-09T00:48:47;96618.72;;;28.67
20867;BMP280;10593;48.398;10.698;2023-07-09T00:51:19;96623.28;;;28.65
20867;BMP280;10593;48.398;10.698;2023-07-09T00:53:49;96627.88;;;28.63
20867;BMP280;10593;48.398;10.698;2023-07-09T00:56:36;96628.97;;;28.61
20867;BMP280;10593;48.398;10.698;2023-07-09T00:59:07;96631.00;;;28.57
20867;BMP280;10593;48.398;10.698;2023-07-09T01:01:34;96624.16;;;28.55
20867;BMP280;10593;48.398;10.698;2023-07-09T01:04:02;96637.53;;;28.53
20867;BMP280;10593;48.398;10.698;2023-07-09T01:06:45;96629.84;;;28.50
20867;BMP280;10593;48.398;10.698;2023-07-09T01:09:13;96634.56;;;28.47
20867;BMP280;10593;48.398;10.698;2023-07-09T01:11:38;96633.00;;;28.44
20867;BMP280;10593;48.398;10.698;2023-07-09T01:14:08;96634.91;;;28.42
20867;BMP280;10593;48.398;10.698;2023-07-09T01:16:40;96631.56;;;28.40
20867;BMP280;10593;48.398;10.698;2023-07-09T01:19:08;96631.09;;;28.35
20867;BMP280;10593;48.398;10.698;2023-07-09T01:21:34;96629.41;;;28.34
20867;BMP280;10593;48.398;10.698;2023-07-09T01:24:16;96637.59;;;28.31
20867;BMP280;10593;48.398;10.698;2023-07-09T01:26:45;96632.53;;;28.28
20867;BMP280;10593;48.398;10.698;2023-07-09T01:29:12;96637.13;;;28.26
20867;BMP280;10593;48.398;10.698;2023-07-09T01:31:37;96640.84;;;28.24
20867;BMP280;10593;48.398;10.698;2023-07-09T01:34:03;96646.22;;;28.22
20867;BMP280;10593;48.398;10.698;2023-07-09T01:36:29;96645.53;;;28.20
20867;BMP280;10593;48.398;10.698;2023-07-09T01:38:56;96640.50;;;28.17
20867;BMP280;10593;48.398;10.698;2023-07-09T01:41:22;96642.53;;;28.14
20867;BMP280;10593;48.398;10.698;2023-07-09T01:43:48;96637.41;;;28.13
20867;BMP280;10593;48.398;10.698;2023-07-09T01:46:14;96637.50;;;28.11
20867;BMP280;10593;48.398;10.698;2023-07-09T01:48:40;96635.13;;;28.08
20867;BMP280;10593;48.398;10.698;2023-07-09T01:51:13;96634.41;;;28.06
20867;BMP280;10593;48.398;10.698;2023-07-09T01:53:40;96631.16;;;28.03
20867;BMP280;10593;48.398;10.698;2023-07-09T01:56:06;96633.09;;;28.01
20867;BMP280;10593;48.398;10.698;2023-07-09T01:58:36;96635.03;;;27.99
20867;BMP280;10593;48.398;10.698;2023-07-09T02:01:07;96637.78;;;27.97
20867;BMP280;10593;48.398;10.698;2023-07-09T02:03:33;96637.16;;;27.94
20867;BMP280;10593;48.398;10.698;2023-07-09T02:05:59;96632.03;;;27.92
20867;BMP280;10593;48.398;10.698;2023-07-09T02:08:25;96643.69;;;27.90
20867;BMP280;10593;48.398;10.698;2023-07-09T02:10:51;96643.78;;;27.88
20867;BMP280;10593;48.398;10.698;2023-07-09T02:13:17;96638.75;;;27.85
20867;BMP280;10593;48.398;10.698;2023-07-09T02:15:43;96639.72;;;27.84
20867;BMP280;10593;48.398;10.698;2023-07-09T02:18:15;96646.81;;;27.84
20867;BMP280;10593;48.398;10.698;2023-07-09T02:20:41;96641.75;;;27.81
20867;BMP280;10593;48.398;10.698;2023-07-09T02:23:08;96638.41;;;27.79
20867;BMP280;10593;48.398;10.698;2023-07-09T02:25:34;96642.97;;;27.77
20867;BMP280;10593;48.398;10.698;2023-07-09T02:28:00;96644.91;;;27.75
20867;BMP280;10593;48.398;10.698;2023-07-09T02:30:26;96639.81;;;27.72
20867;BMP280;10593;48.398;10.698;2023-07-09T02:32:51;96643.44;;;27.71
20867;BMP280;10593;48.398;10.698;2023-07-09T02:35:20;96646.19;;;27.69
20867;BMP280;10593;48.398;10.698;2023-07-09T02:37:46;96645.47;;;27.67
20867;BMP280;10593;48.398;10.698;2023-07-09T02:40:13;96644.75;;;27.65
20867;BMP280;10593;48.398;10.698;2023-07-09T02:42:39;96648.47;;;27.63
20867;BMP280;10593;48.398;10.698;2023-07-09T02:45:05;96648.72;;;27.60
20867;BMP280;10593;48.398;10.698;2023-07-09T02:47:31;96655.91;;;27.58
20867;BMP280;10593;48.398;10.698;2023-07-09T02:49:57;96657.81;;;27.56
20867;BMP280;10593;48.398;10.698;2023-07-09T02:52:23;96652.78;;;27.53
20867;BMP280;10593;48.398;10.698;2023-07-09T02:54:48;96657.34;;;27.51
20867;BMP280;10593;48.398;10.698;2023-07-09T02:57:15;96660.22;;;27.48
20867;BMP280;10593;48.398;10.698;2023-07-09T02:59:40;96665.63;;;27.46
20867;BMP280;10593;48.398;10.698;2023-07-09T03:02:06;96658.03;;;27.42
20867;BMP280;10593;48.398;10.698;2023-07-09T03:04:32;96654.69;;;27.40
20867;BMP280;10593;48.398;10.698;2023-07-09T03:06:58;96664.44;;;27.39
20867;BMP280;10593;48.398;10.698;2023-07-09T03:09:26;96657.56;;;27.37
20867;BMP280;10593;48.398;10.698;2023-07-09T03:11:52;96655.03;;;27.35
20867;BMP280;10593;48.398;10.698;2023-07-09T03:14:18;96658.78;;;27.33
20867;BMP280;10593;48.398;10.698;2023-07-09T03:16:44;96659.75;;;27.32
20867;BMP280;10593;48.398;10.698;2023-07-09T03:19:09;96655.53;;;27.29
20867;BMP280;10593;48.398;10.698;2023-07-09T03:21:35;96658.28;;;27.28
20867;BMP280;10593;48.398;10.698;2023-07-09T03:24:02;96666.34;;;27.26
20867;BMP280;10593;48.398;10.698;2023-07-09T03:26:28;96669.06;;;27.25
20867;BMP280;10593;48.398;10.698;2023-07-09T03:28:54;96673.63;;;27.23
20867;BMP280;10593;48.398;10.698;2023-07-09T03:31:21;96671.25;;;27.20
20867;BMP280;10593;48.398;10.698;2023-07-09T03:33:48;96670.53;;;27.18
20867;BMP280;10593;48.398;10.698;2023-07-09T03:36:14;96675.09;;;27.16
20867;BMP280;10593;48.398;10.698;2023-07-09T03:38:40;96669.06;;;27.14
20867;BMP280;10593;48.398;10.698;2023-07-09T03:41:06;96682.38;;;27.12
20867;BMP280;10593;48.398;10.698;2023-07-09T03:43:31;96677.41;;;27.08
20867;BMP280;10593;48.398;10.698;2023-07-09T03:45:58;96678.38;;;27.07
20867;BMP280;10593;48.398;10.698;2023-07-09T03:48:23;96682.94;;;27.05
20867;BMP280;10593;48.398;10.698;2023-07-09T03:50:49;96680.41;;;27.03
20867;BMP280;10593;48.398;10.698;2023-07-09T03:53:16;96687.50;;;27.03
20867;BMP280;10593;48.398;10.698;2023-07-09T03:55:45;96683.28;;;27.00
20867;BMP280;10593;48.398;10.698;2023-07-09T03:58:12;96681.69;;;26.98
20867;BMP280;10593;48.398;10.698;2023-07-09T04:00:38;96687.94;;;26.97
20867;BMP280;10593;48.398;10.698;2023-07-09T04:03:04;96697.78;;;26.95
20867;BMP280;10593;48.398;10.698;2023-07-09T04:05:30;96696.09;;;26.94
20867;BMP280;10593;48.398;10.698;2023-07-09T04:07:55;96691.78;;;26.93
20867;BMP280;10593;48.398;10.698;2023-07-09T04:10:21;96695.38;;;26.92
20867;BMP280;10593;48.398;10.698;2023-07-09T04:12:47;96699.91;;;26.90
20867;BMP280;10593;48.398;10.698;2023-07-09T04:15:13;96702.66;;;26.88
20867;BMP280;10593;48.398;10.698;2023-07-09T04:17:40;96700.97;;;26.87
20867;BMP280;10593;48.398;10.698;2023-07-09T04:20:08;96700.13;;;26.87
20867;BMP280;10593;48.398;10.698;2023-07-09T04:22:36;96704.56;;;26.86
20867;BMP280;10593;48.398;10.698;2023-07-09T04:25:03;96702.91;;;26.85
20867;BMP280;10593;48.398;10.698;2023-07-09T04:27:31;96695.94;;;26.84
20867;BMP280;10593;48.398;10.698;2023-07-09T04:29:57;96704.81;;;26.83
20867;BMP280;10593;48.398;10.698;2023-07-09T04:32:23;96698.69;;;26.83
20867;BMP280;10593;48.398;10.698;2023-07-09T04:34:49;96701.31;;;26.83
20867;BMP280;10593;48.398;10.698;2023-07-09T04:37:15;96703.00;;;26.84
20867;BMP280;10593;48.398;10.698;2023-07-09T04:39:44;96700.38;;;26.84
20867;BMP280;10593;48.398;10.698;2023-07-09T04:42:16;96701.22;;;26.84
20867;BMP280;10593;48.398;10.698;2023-07-09T04:44:43;96697.63;;;26.85
20867;BMP280;10593;48.398;10.698;2023-07-09T04:47:09;96705.53;;;26.85
20867;BMP280;10593;48.398;10.698;2023-07-09T04:49:37;96708.91;;;26.87
20867;BMP280;10593;48.398;10.698;2023-07-09T04:52:03;96696.53;;;26.88
20867;BMP280;10593;48.398;10.698;2023-07-09T04:54:29;96704.34;;;26.89
20867;BMP280;10593;48.398;10.698;2023-07-09T04:56:56;96704.25;;;26.91
20867;BMP280;10593;48.398;10.698;2023-07-09T04:59:22;96692.72;;;26.92
20867;BMP280;10593;48.398;10.698;2023-07-09T05:01:49;96706.66;;;26.94
20867;BMP280;10593;48.398;10.698;2023-07-09T05:04:15;96699.44;;;26.96
20867;BMP280;10593;48.398;10.698;2023-07-09T05:06:41;96712.53;;;26.97
20867;BMP280;10593;48.398;10.698;2023-07-09T05:09:07;96699.22;;;26.99
20867;BMP280;10593;48.398;10.698;2023-07-09T05:11:35;96704.25;;;27.02
20867;BMP280;10593;48.398;10.698;2023-07-09T05:14:02;96707.66;;;27.04
20867;BMP280;10593;48.398;10.698;2023-07-09T05:16:27;96708.38;;;27.06
20867;BMP280;10593;48.398;10.698;2023-07-09T05:18:53;96710.78;;;27.09
20867;BMP280;10593;48.398;10.698;2023-07-09T05:21:19;96714.06;;;27.12
20867;BMP280;10593;48.398;10.698;2023-07-09T05:23:44;96720.06;;;27.14
20867;BMP280;10593;48.398;10.698;2023-07-09T05:26:10;96720.66;;;27.18
20867;BMP280;10593;48.398;10.698;2023-07-09T05:28:36;96722.22;;;27.20
20867;BMP280;10593;48.398;10.698;2023-07-09T05:31:04;96718.50;;;27.23
20867;BMP280;10593;48.398;10.698;2023-07-09T05:33:30;96717.31;;;27.27
20867;BMP280;10593;48.398;10.698;2023-07-09T05:35:55;96721.44;;;27.31
20867;BMP280;10593;48.398;10.698;2023-07-09T05:38:21;96721.91;;;27.36
20867;BMP280;10593;48.398;10.698;2023-07-09T05:40:47;96718.19;;;27.38
20867;BMP280;10593;48.398;10.698;2023-07-09T05:43:13;96728.53;;;27.41
20867;BMP280;10593;48.398;10.698;2023-07-09T05:45:39;96729.97;;;27.45
20867;BMP280;10593;48.398;10.698;2023-07-09T05:48:06;96727.94;;;27.49
20867;BMP280;10593;48.398;10.698;2023-07-09T05:50:34;96726.72;;;27.53
20867;BMP280;10593;48.398;10.698;2023-07-09T05:53:01;96730.94;;;27.55
20867;BMP280;10593;48.398;10.698;2023-07-09T05:55:26;96721.09;;;27.57
20867;BMP280;10593;48.398;10.698;2023-07-09T05:57:53;96725.31;;;27.60
20867;BMP280;10593;48.398;10.698;2023-07-09T06:00:19;96725.94;;;27.63
20867;BMP280;10593;48.398;10.698;2023-07-09T06:02:45;96732.75;;;27.66
20867;BMP280;10593;48.398;10.698;2023-07-09T06:05:11;96721.00;;;27.70
20867;BMP280;10593;48.398;10.698;2023-07-09T06:07:38;96725.94;;;27.74
20867;BMP280;10593;48.398;10.698;2023-07-09T06:10:08;96723.09;;;27.77
20867;BMP280;10593;48.398;10.698;2023-07-09T06:12:35;96724.63;;;27.80
20867;BMP280;10593;48.398;10.698;2023-07-09T06:15:01;96727.78;;;27.85
20867;BMP280;10593;48.398;10.698;2023-07-09T06:17:27;96723.91;;;27.89
20867;BMP280;10593;48.398;10.698;2023-07-09T06:19:53;96726.19;;;27.93
20867;BMP280;10593;48.398;10.698;2023-07-09T06:22:19;96725.84;;;27.98
20867;BMP280;10593;48.398;10.698;2023-07-09T06:24:45;96728.09;;;28.02
20867;BMP280;10593;48.398;10.698;2023-07-09T06:27:11;96726.78;;;28.08
20867;BMP280;10593;48.398;10.698;2023-07-09T06:29:36;96725.59;;;28.12
20867;BMP280;10593;48.398;10.698;2023-07-09T06:32:04;96729.66;;;28.16
20867;BMP280;10593;48.398;10.698;2023-07-09T06:34:30;96722.34;;;28.19
20867;BMP280;10593;48.398;10.698;2023-07-09T06:36:57;96721.00;;;28.24
20867;BMP280;10593;48.398;10.698;2023-07-09T06:39:22;96726.66;;;28.31
20867;BMP280;10593;48.398;10.698;2023-07-09T06:41:49;96721.16;;;28.34
20867;BMP280;10593;48.398;10.698;2023-07-09T06:44:15;96730.41;;;28.39
20867;BMP280;10593;48.398;10.698;2023-07-09T06:46:40;96730.84;;;28.44
20867;BMP280;10593;48.398;10.698;2023-07-09T06:49:06;96729.63;;;28.48
20867;BMP280;10593;48.398;10.698;2023-07-09T06:51:32;96737.09;;;28.54
20867;BMP280;10593;48.398;10.698;2023-07-09T06:53:58;96735.88;;;28.58
20867;BMP280;10593;48.398;10.698;2023-07-09T06:56:24;96728.41;;;28.63
20867;BMP280;10593;48.398;10.698;2023-07-09T06:58:50;96727.03;;;28.69
20867;BMP280;10593;48.398;10.698;2023-07-09T07:01:15;96733.66;;;28.74
20867;BMP280;10593;48.398;10.698;2023-07-09T07:03:41;96728.84;;;28.79
20867;BMP280;10593;48.398;10.698;2023-07-09T07:06:07;96718.59;;;28.86
20867;BMP280;10593;48.398;10.698;2023-07-09T07:08:34;96717.28;;;28.91
20867;BMP280;10593;48.398;10.698;2023-07-09T07:11:03;96720.25;;;28.98
20867;BMP280;10593;48.398;10.698;2023-07-09T07:13:39;96715.31;;;29.04
20867;BMP280;10593;48.398;10.698;2023-07-09T07:16:08;96712.97;;;29.11
20867;BMP280;10593;48.398;10.698;2023-07-09T07:18:34;96725.69;;;29.17
20867;BMP280;10593;48.398;10.698;2023-07-09T07:21:00;96715.44;;;29.23
20867;BMP280;10593;48.398;10.698;2023-07-09T07:23:27;96724.53;;;29.30
20867;BMP280;10593;48.398;10.698;2023-07-09T07:25:53;96721.25;;;29.38
20867;BMP280;10593;48.398;10.698;2023-07-09T07:28:20;96725.91;;;29.45
20867;BMP280;10593;48.398;10.698;2023-07-09T07:30:45;96717.44;;;29.51
20867;BMP280;10593;48.398;10.698;2023-07-09T07:33:14;96721.38;;;29.57
20867;BMP280;10593;48.398;10.698;2023-07-09T07:35:41;96723.66;;;29.61
20867;BMP280;10593;48.398;10.698;2023-07-09T07:38:07;96720.63;;;29.66
20867;BMP280;10593;48.398;10.698;2023-07-09T07:40:32;96717.53;;;29.70
20867;BMP280;10593;48.398;10.698;2023-07-09T07:42:58;96710.06;;;29.75
20867;BMP280;10593;48.398;10.698;2023-07-09T07:45:24;96704.22;;;29.81
20867;BMP280;10593;48.398;10.698;2023-07-09T07:47:50;96709.13;;;29.86
20867;BMP280;10593;48.398;10.698;2023-07-09T07:50:17;96705.94;;;29.92
20867;BMP280;10593;48.398;10.698;2023-07-09T07:52:43;96705.53;;;29.96
20867;BMP280;10593;48.398;10.698;2023-07-09T07:55:09;96703.19;;;30.03
20867;BMP280;10593;48.398;10.698;2023-07-09T07:57:35;96706.44;;;30.06
20867;BMP280;10593;48.398;10.698;2023-07-09T08:00:02;96698.91;;;30.11
20867;BMP280;10593;48.398;10.698;2023-07-09T08:02:28;96703.00;;;30.15
20867;BMP280;10593;48.398;10.698;2023-07-09T08:04:54;96701.63;;;30.21
20867;BMP280;10593;48.398;10.698;2023-07-09T08:07:20;96706.53;;;30.25
20867;BMP280;10593;48.398;10.698;2023-07-09T08:09:46;96698.13;;;30.30
20867;BMP280;10593;48.398;10.698;2023-07-09T08:12:13;96699.41;;;30.35
20867;BMP280;10593;48.398;10.698;2023-07-09T08:14:41;96701.66;;;30.40
20867;BMP280;10593;48.398;10.698;2023-07-09T08:17:08;96703.06;;;30.44
20867;BMP280;10593;48.398;10.698;2023-07-09T08:19:45;96700.00;;;30.48
20867;BMP280;10593;48.398;10.698;2023-07-09T08:22:12;96691.75;;;30.51
20867;BMP280;10593;48.398;10.698;2023-07-09T08:24:37;96693.19;;;30.55
20867;BMP280;10593;48.398;10.698;2023-07-09T08:27:06;96684.94;;;30.58
20867;BMP280;10593;48.398;10.698;2023-07-09T08:29:31;96690.69;;;30.63
20867;BMP280;10593;48.398;10.698;2023-07-09T08:31:57;96687.78;;;30.66
20867;BMP280;10593;48.398;10.698;2023-07-09T08:34:23;96684.69;;;30.70
20867;BMP280;10593;48.398;10.698;2023-07-09T08:36:48;96681.63;;;30.75
20867;BMP280;10593;48.398;10.698;2023-07-09T08:39:14;96681.31;;;30.78
20867;BMP280;10593;48.398;10.698;2023-07-09T08:41:51;96691.41;;;30.84
20867;BMP280;10593;48.398;10.698;2023-07-09T08:45:16;96687.66;;;30.86
20867;BMP280;10593;48.398;10.698;2023-07-09T08:48:05;96684.72;;;30.89
20867;BMP280;10593;48.398;10.698;2023-07-09T08:50:45;96689.59;;;30.94
20867;BMP280;10593;48.398;10.698;2023-07-09T08:53:39;96686.38;;;31.00
20867;BMP280;10593;48.398;10.698;2023-07-09T08:56:10;96685.97;;;31.04
20867;BMP280;10593;48.398;10.698;2023-07-09T08:58:37;96685.38;;;31.10
20867;BMP280;10593;48.398;10.698;2023-07-09T09:01:14;96684.00;;;31.16
20867;BMP280;10593;48.398;10.698;2023-07-09T09:03:52;96686.13;;;31.22
20867;BMP280;10593;48.398;10.698;2023-07-09T09:06:26;96688.19;;;31.28
20867;BMP280;10593;48.398;10.698;2023-07-09T09:09:31;96685.25;;;31.31
20867;BMP280;10593;48.398;10.698;2023-07-09T09:12:22;96688.47;;;31.34
20867;BMP280;10593;48.398;10.698;2023-07-09T09:15:17;96684.53;;;31.38
20867;BMP280;10593;48.398;10.698;2023-07-09T09:17:44;96684.97;;;31.43
20867;BMP280;10593;48.398;10.698;2023-07-09T09:20:18;96682.69;;;31.48
20867;BMP280;10593;48.398;10.698;2023-07-09T09:25:38;96691.63;;;31.57
20867;BMP280;10593;48.398;10.698;2023-07-09T09:28:07;96693.84;;;31.61
20867;BMP280;10593;48.398;10.698;2023-07-09T09:30:33;96690.81;;;31.66
20867;BMP280;10593;48.398;10.698;2023-07-09T09:33:05;96688.69;;;31.69
20867;BMP280;10593;48.398;10.698;2023-07-09T09:35:38;96685.59;;;31.74
20867;BMP280;10593;48.398;10.698;2023-07-09T09:38:35;96684.31;;;31.78
20867;BMP280;10593;48.398;10.698;2023-07-09T09:41:01;96692.84;;;31.81
20867;BMP280;10593;48.398;10.698;2023-07-09T09:43:32;96689.59;;;31.87
20867;BMP280;10593;48.398;10.698;2023-07-09T09:45:59;96684.84;;;31.91
20867;BMP280;10593;48.398;10.698;2023-07-09T09:48:31;96689.84;;;31.94
20867;BMP280;10593;48.398;10.698;2023-07-09T09:50:58;96687.59;;;31.99
20867;BMP280;10593;48.398;10.698;2023-07-09T09:53:30;96682.00;;;32.02
20867;BMP280;10593;48.398;10.698;2023-07-09T09:56:06;96685.16;;;32.05
20867;BMP280;10593;48.398;10.698;2023-07-09T09:58:40;96691.72;;;32.11
20867;BMP280;10593;48.398;10.698;2023-07-09T10:01:15;96690.47;;;32.15
20867;BMP280;10593;48.398;10.698;2023-07-09T10:03:42;96685.84;;;32.17
20867;BMP280;10593;48.398;10.698;2023-07-09T10:06:41;96687.22;;;32.21
20867;BMP280;10593;48.398;10.698;2023-07-09T10:09:45;96684.28;;;32.24
20867;BMP280;10593;48.398;10.698;2023-07-09T10:12:49;96684.97;;;32.26
20867;BMP280;10593;48.398;10.698;2023-07-09T10:21:34;96676.25;;;32.33
20867;BMP280;10593;48.398;10.698;2023-07-09T10:27:53;96685.44;;;32.39
20867;BMP280;10593;48.398;10.698;2023-07-09T10:30:46;96677.88;;;32.44
20867;BMP280;10593;48.398;10.698;2023-07-09T10:33:36;96678.41;;;32.47
20867;BMP280;10593;48.398;10.698;2023-07-09T10:39:49;96683.13;;;32.53
20867;BMP280;10593;48.398;10.698;2023-07-09T10:42:30;96675.50;;;32.58
20867;BMP280;10593;48.398;10.698;2023-07-09T10:45:34;96669.91;;;32.61
20867;BMP280;10593;48.398;10.698;2023-07-09T10:48:12;96671.28;;;32.65
20867;BMP280;10593;48.398;10.698;2023-07-09T10:50:49;96669.16;;;32.69
20867;BMP280;10593;48.398;10.698;2023-07-09T10:53:43;96665.34;;;32.71
20867;BMP280;10593;48.398;10.698;2023-07-09T10:56:22;96665.91;;;32.75
20867;BMP280;10593;48.398;10.698;2023-07-09T11:01:38;96659.97;;;32.81
20867;BMP280;10593;48.398;10.698;2023-07-09T11:04:12;96655.16;;;32.84
20867;BMP280;10593;48.398;10.698;2023-07-09T11:06:46;96654.72;;;32.89
20867;BMP280;10593;48.398;10.698;2023-07-09T11:09:42;96647.56;;;32.89
20867;BMP280;10593;48.398;10.698;2023-07-09T11:12:19;96647.06;;;32.93
20867;BMP280;10593;48.398;10.698;2023-07-09T11:14:53;96638.94;;;32.95
20867;BMP280;10593;48.398;10.698;2023-07-09T11:17:22;96638.81;;;32.97
20867;BMP280;10593;48.398;10.698;2023-07-09T11:19:55;96630.34;;;33.01
20867;BMP280;10593;48.398;10.698;2023-07-09T11:22:24;96635.38;;;33.04
20867;BMP280;10593;48.398;10.698;2023-07-09T11:25:13;96640.25;;;33.08
20867;BMP280;10593;48.398;10.698;2023-07-09T11:28:00;96635.41;;;33.12
20867;BMP280;10593;48.398;10.698;2023-07-09T11:30:28;96626.28;;;33.14
20867;BMP280;10593;48.398;10.698;2023-07-09T11:33:04;96621.47;;;33.18
20867;BMP280;10593;48.398;10.698;2023-07-09T11:35:49;96622.16;;;33.20
20867;BMP280;10593;48.398;10.698;2023-07-09T11:38:24;96623.72;;;33.22
20867;BMP280;10593;48.398;10.698;2023-07-09T11:40:54;96622.53;;;33.25
20867;BMP280;10593;48.398;10.698;2023-07-09T11:43:29;96621.41;;;33.27
20867;BMP280;10593;48.398;10.698;2023-07-09T11:45:59;96619.41;;;33.29
20867;BMP280;10593;48.398;10.698;2023-07-09T11:48:32;96612.09;;;33.31
20867;BMP280;10593;48.398;10.698;2023-07-09T11:51:13;96601.16;;;33.34
20867;BMP280;10593;48.398;10.698;2023-07-09T11:53:51;96602.31;;;33.40
20867;BMP280;10593;48.398;10.698;2023-07-09T11:56:20;96598.50;;;33.42
20867;BMP280;10593;48.398;10.698;2023-07-09T11:58:56;96599.84;;;33.46
20867;BMP280;10593;48.398;10.698;2023-07-09T12:01:36;96603.22;;;33.48
20867;BMP280;10593;48.398;10.698;2023-07-09T12:04:05;96600.25;;;33.51
20867;BMP280;10593;48.398;10.698;2023-07-09T12:06:33;96599.75;;;33.56
20867;BMP280;10593;48.398;10.698;2023-07-09T12:08:59;96602.09;;;33.59
20867;BMP280;10593;48.398;10.698;2023-07-09T12:11:32;96597.28;;;33.62
20867;BMP280;10593;48.398;10.698;2023-07-09T12:14:10;96598.78;;;33.65
20867;BMP280;10593;48.398;10.698;2023-07-09T12:16:41;96602.97;;;33.67
20867;BMP280;10593;48.398;10.698;2023-07-09T12:19:11;96599.31;;;33.68
20867;BMP280;10593;48.398;10.698;2023-07-09T12:21:39;96598.88;;;33.73
20867;BMP280;10593;48.398;10.698;2023-07-09T12:26:55;96591.53;;;33.75
20867;BMP280;10593;48.398;10.698;2023-07-09T12:29:29;96586.88;;;33.77
20867;BMP280;10593;48.398;10.698;2023-07-09T12:31:59;96580.41;;;33.79
20867;BMP280;10593;48.398;10.698;2023-07-09T12:34:31;96580.06;;;33.82
20867;BMP280;10593;48.398;10.698;2023-07-09T12:36:57;96572.72;;;33.84
20867;BMP280;10593;48.398;10.698;2023-07-09T12:39:29;96574.09;;;33.88
20867;BMP280;10593;48.398;10.698;2023-07-09T12:42:01;96568.44;;;33.91
20867;BMP280;10593;48.398;10.698;2023-07-09T12:44:36;96563.63;;;33.95
20867;BMP280;10593;48.398;10.698;2023-07-09T12:47:02;96566.78;;;33.98
20867;BMP280;10593;48.398;10.698;2023-07-09T12:49:36;96568.28;;;34.01
20867;BMP280;10593;48.398;10.698;2023-07-09T12:52:13;96567.97;;;34.04
20867;BMP280;10593;48.398;10.698;2023-07-09T12:54:39;96569.28;;;34.08
20867;BMP280;10593;48.398;10.698;2023-07-09T12:57:15;96562.81;;;34.10
20867;BMP280;10593;48.398;10.698;2023-07-09T12:59:45;96557.13;;;34.13
20867;BMP280;10593;48.398;10.698;2023-07-09T13:02:22;96557.84;;;34.15
20867;BMP280;10593;48.398;10.698;2023-07-09T13:04:49;96558.50;;;34.17
20867;BMP280;10593;48.398;10.698;2023-07-09T13:09:52;96549.19;;;34.21
20867;BMP280;10593;48.398;10.698;2023-07-09T13:12:19;96543.84;;;34.21
20867;BMP280;10593;48.398;10.698;2023-07-09T13:14:53;96547.19;;;34.23
20867;BMP280;10593;48.398;10.698;2023-07-09T13:17:19;96550.53;;;34.25
20867;BMP280;10593;48.398;10.698;2023-07-09T13:19:45;96550.38;;;34.27
20867;BMP280;10593;48.398;10.698;2023-07-09T13:22:16;96555.22;;;34.31
20867;BMP280;10593;48.398;10.698;2023-07-09T13:24:42;96545.22;;;34.33
20867;BMP280;10593;48.398;10.698;2023-07-09T13:27:15;96548.41;;;34.37
20867;BMP280;10593;48.398;10.698;2023-07-09T13:29:42;96547.38;;;34.38
20867;BMP280;10593;48.398;10.698;2023-07-09T13:32:13;96541.88;;;34.39
20867;BMP280;10593;48.398;10.698;2023-07-09T13:34:40;96538.19;;;34.40
20867;BMP280;10593;48.398;10.698;2023-07-09T13:37:13;96542.22;;;34.44
20867;BMP280;10593;48.398;10.698;2023-07-09T13:39:40;96553.56;;;34.46
20867;BMP280;10593;48.398;10.698;2023-07-09T13:42:14;96552.41;;;34.49
20867;BMP280;10593;48.398;10.698;2023-07-09T13:44:43;96548.75;;;34.50
20867;BMP280;10593;48.398;10.698;2023-07-09T13:47:15;96543.06;;;34.53
20867;BMP280;10593;48.398;10.698;2023-07-09T13:49:44;96537.53;;;34.54
20867;BMP280;10593;48.398;10.698;2023-07-09T13:52:22;96535.56;;;34.56
20867;BMP280;10593;48.398;10.698;2023-07-09T13:54:49;96538.03;;;34.58
20867;BMP280;10593;48.398;10.698;2023-07-09T13:57:19;96539.56;;;34.60
20867;BMP280;10593;48.398;10.698;2023-07-09T13:59:45;96538.56;;;34.61
20867;BMP280;10593;48.398;10.698;2023-07-09T14:02:30;96537.56;;;34.62
20867;BMP280;10593;48.398;10.698;2023-07-09T14:04:59;96535.53;;;34.64
20867;BMP280;10593;48.398;10.698;2023-07-09T14:07:30;96534.38;;;34.67
20867;BMP280;10593;48.398;10.698;2023-07-09T14:10:00;96525.25;;;34.69
20867;BMP280;10593;48.398;10.698;2023-07-09T14:12:27;96525.91;;;34.71
20867;BMP280;10593;48.398;10.698;2023-07-09T14:14:57;96530.91;;;34.74
20867;BMP280;10593;48.398;10.698;2023-07-09T14:17:24;96523.56;;;34.76
20867;BMP280;10593;48.398;10.698;2023-07-09T14:19:54;96519.72;;;34.79
20867;BMP280;10593;48.398;10.698;2023-07-09T14:22:33;96525.72;;;34.81
20867;BMP280;10593;48.398;10.698;2023-07-09T14:25:01;96521.88;;;34.83
20867;BMP280;10593;48.398;10.698;2023-07-09T14:27:27;96518.03;;;34.86
20867;BMP280;10593;48.398;10.698;2023-07-09T14:29:54;96516.19;;;34.86
20867;BMP280;10593;48.398;10.698;2023-07-09T14:32:37;96522.22;;;34.88
20867;BMP280;10593;48.398;10.698;2023-07-09T14:35:20;96510.50;;;34.89
20867;BMP280;10593;48.398;10.698;2023-07-09T14:37:49;96516.69;;;34.90
20867;BMP280;10593;48.398;10.698;2023-07-09T14:40:18;96512.84;;;34.92